Time;durP1;ratioP1;P1;durP2;ratioP2;P2;SDS_P1;SDS_P2;PMS_P1;PMS_P2;Temp;Humidity;BMP_temperature;BMP_pressure;BME280_temperature;BME280_humidity;BME280_pressure;Samples;Min_cycle;Max_cycle;Signal;HPM_P1;HPM_P2
2021/12/20 00:02:05;;;;;;;1.40;0.22;;;7.10;93.90;;;;;;5077694;28;20036;-80
2021/12/20 00:04:30;;;;;;;1.15;0.10;;;7.00;93.90;;;;;;5094606;28;20040;-80
2021/12/20 00:06:56;;;;;;;0.65;0.10;;;7.00;93.80;;;;;;5077366;28;20050;-80
2021/12/20 00:09:22;;;;;;;0.20;0.20;;;7.00;93.80;;;;;;5060418;28;20047;-80
2021/12/20 00:11:48;;;;;;;0.85;0.40;;;7.00;93.80;;;;;;5077282;28;20046;-80
2021/12/20 00:14:13;;;;;;;0.75;0.28;;;7.00;93.80;;;;;;5112907;28;20388;-80
2021/12/20 00:16:39;;;;;;;2.28;0.50;;;6.90;93.80;;;;;;5095021;28;20063;-80
2021/12/20 00:19:09;;;;;;;0.55;0.20;;;6.90;93.80;;;;;;5080602;28;20442;-80
2021/12/20 00:21:35;;;;;;;0.65;0.35;;;6.90;93.80;;;;;;5098860;28;20039;-80
2021/12/20 00:24:01;;;;;;;0.88;0.30;;;6.90;93.80;;;;;;5098052;28;20035;-80
2021/12/20 00:26:26;;;;;;;0.70;0.30;;;6.90;93.80;;;;;;5064083;28;20092;-80
2021/12/20 00:28:52;;;;;;;1.65;0.28;;;6.90;93.80;;;;;;5116447;28;20130;-80
2021/12/20 00:31:18;;;;;;;0.30;0.20;;;6.90;93.70;;;;;;5080623;28;20377;-80
2021/12/20 00:33:44;;;;;;;1.20;0.28;;;6.80;93.70;;;;;;5064037;28;20126;-80
2021/12/20 00:36:09;;;;;;;0.95;0.22;;;6.80;93.70;;;;;;5097569;28;20048;-80
2021/12/20 00:41:23;;;;;;;1.02;0.20;;;6.90;93.70;;;;;;5100238;28;20043;-80
2021/12/20 00:43:49;;;;;;;1.80;0.32;;;6.80;93.70;;;;;;5097974;28;20071;-80
2021/12/20 00:46:15;;;;;;;1.13;0.30;;;6.90;93.70;;;;;;5080406;28;20504;-80
2021/12/20 00:48:41;;;;;;;0.10;0.10;;;6.80;93.70;;;;;;5063622;28;20397;-80
2021/12/20 00:51:06;;;;;;;1.35;0.20;;;6.80;93.70;;;;;;5063851;28;20027;-80
2021/12/20 00:53:32;;;;;;;1.60;0.20;;;6.80;93.70;;;;;;5097315;28;20039;-80
2021/12/20 00:55:58;;;;;;;0.50;0.20;;;6.80;93.70;;;;;;5096593;28;20047;-80
2021/12/20 00:58:23;;;;;;;0.98;0.20;;;6.80;93.90;;;;;;5115438;28;20062;-80
2021/12/20 01:00:51;;;;;;;0.52;0.17;;;6.80;93.70;;;;;;5115420;28;20070;-80
2021/12/20 01:03:19;;;;;;;1.13;0.30;;;6.80;93.70;;;;;;5095887;28;20374;-80
2021/12/20 01:05:45;;;;;;;0.22;0.20;;;6.80;93.70;;;;;;5097210;28;20042;-80
2021/12/20 01:08:12;;;;;;;0.30;0.13;;;6.80;93.60;;;;;;5096707;28;20047;-80
2021/12/20 01:10:45;;;;;;;0.52;0.30;;;6.90;93.70;;;;;;5097464;28;20046;-80
2021/12/20 01:13:12;;;;;;;1.90;0.32;;;6.80;93.60;;;;;;5064302;28;20039;-80
2021/12/20 01:15:46;;;;;;;0.95;0.25;;;6.80;93.60;;;;;;5080630;28;20139;-80
2021/12/20 01:18:12;;;;;;;1.42;0.40;;;6.80;93.60;;;;;;5080652;28;20043;-80
2021/12/20 01:20:38;;;;;;;0.88;0.20;;;6.90;93.60;;;;;;5096652;28;20215;-80
2021/12/20 01:23:05;;;;;;;0.25;0.20;;;6.70;93.50;;;;;;5079968;28;20044;-80
2021/12/20 01:25:31;;;;;;;0.57;0.20;;;6.80;93.50;;;;;;5063082;28;20514;-79
2021/12/20 01:27:57;;;;;;;1.42;0.40;;;6.80;93.50;;;;;;5096262;28;20035;-80
2021/12/20 01:30:25;;;;;;;1.02;0.30;;;6.70;93.50;;;;;;5079680;28;20431;-80
2021/12/20 01:32:51;;;;;;;2.28;0.57;;;6.70;93.50;;;;;;5114922;28;20027;-80
2021/12/20 01:35:18;;;;;;;0.40;0.10;;;6.70;93.50;;;;;;5079539;28;20036;-80
2021/12/20 01:37:44;;;;;;;1.58;0.47;;;6.70;93.40;;;;;;5115282;28;20048;-80
2021/12/20 01:40:13;;;;;;;5.13;0.30;;;6.70;93.40;;;;;;5079515;28;20096;-80
2021/12/20 01:42:39;;;;;;;0.70;0.22;;;6.70;93.40;;;;;;5080017;28;20039;-80
2021/12/20 01:45:14;;;;;;;1.70;0.40;;;6.60;93.40;;;;;;5079554;28;20548;-80
2021/12/20 01:47:44;;;;;;;1.20;0.50;;;6.60;93.40;;;;;;5095040;28;20054;-80
2021/12/20 01:50:20;;;;;;;1.08;0.32;;;6.70;93.40;;;;;;5080335;28;20408;-79
2021/12/20 01:52:46;;;;;;;3.92;0.60;;;6.70;93.40;;;;;;5097900;28;20046;-80
2021/12/20 01:55:16;;;;;;;0.40;0.32;;;6.60;93.40;;;;;;5062773;28;20123;-80
2021/12/20 01:57:42;;;;;;;1.45;0.30;;;6.60;93.30;;;;;;5114425;28;20485;-80
2021/12/20 02:00:12;;;;;;;1.45;0.43;;;6.70;93.60;;;;;;5079425;28;20112;-80
2021/12/20 02:02:38;;;;;;;0.93;0.30;;;6.60;93.30;;;;;;5096368;28;20159;-80
2021/12/20 02:05:16;;;;;;;1.23;0.20;;;6.60;93.30;;;;;;5096084;28;20500;-80
2021/12/20 02:08:01;;;;;;;0.30;0.20;;;6.60;93.30;;;;;;5097474;28;20036;-80
2021/12/20 02:10:26;;;;;;;1.10;0.30;;;6.70;93.30;;;;;;5098850;28;20149;-80
2021/12/20 02:12:53;;;;;;;1.00;0.47;;;6.60;93.30;;;;;;5078985;28;20107;-80
2021/12/20 02:15:19;;;;;;;0.88;0.28;;;6.60;93.30;;;;;;5078971;28;20055;-80
2021/12/20 02:17:45;;;;;;;2.08;0.38;;;6.60;93.30;;;;;;5096114;28;20434;-80
2021/12/20 02:20:25;;;;;;;0.98;0.20;;;6.50;93.30;;;;;;5114364;28;20096;-80
2021/12/20 02:22:54;;;;;;;0.32;0.20;;;6.60;93.30;;;;;;5095324;28;20089;-80
2021/12/20 02:25:20;;;;;;;2.05;0.50;;;6.60;93.30;;;;;;5095941;28;20039;-80
2021/12/20 02:27:47;;;;;;;0.65;0.25;;;6.70;93.30;;;;;;5078817;28;20035;-80
2021/12/20 02:30:36;;;;;;;1.55;0.25;;;6.60;93.30;;;;;;5113886;28;20051;-80
2021/12/20 02:36:58;;;;;;;1.30;0.25;;;6.60;93.30;;;;;;5083343;28;20489;-80
2021/12/20 02:38:33;;;;;;;0.70;0.20;;;6.60;93.30;;;;;;5097081;28;20039;-80
2021/12/20 02:41:04;;;;;;;1.35;0.50;;;6.50;93.20;;;;;;5095132;28;20183;-80
2021/12/20 02:43:34;;;;;;;1.20;0.25;;;6.40;93.20;;;;;;5080001;28;20063;-80
2021/12/20 02:46:03;;;;;;;0.50;0.20;;;6.50;93.30;;;;;;5096306;28;20043;-80
2021/12/20 02:48:29;;;;;;;0.68;0.20;;;6.50;93.30;;;;;;5079577;28;20059;-80
2021/12/20 02:50:55;;;;;;;0.68;0.38;;;6.40;93.20;;;;;;5095859;28;20063;-80
2021/12/20 02:53:21;;;;;;;1.85;0.55;;;6.40;93.20;;;;;;5114019;28;20485;-80
2021/12/20 02:55:47;;;;;;;0.60;0.13;;;6.40;93.20;;;;;;5113819;28;20035;-80
2021/12/20 02:58:13;;;;;;;0.98;0.30;;;6.40;93.20;;;;;;5078527;28;20119;-79
2021/12/20 03:00:39;;;;;;;1.40;0.38;;;6.40;93.20;;;;;;5095237;28;20511;-80
2021/12/20 03:03:06;;;;;;;4.25;0.43;;;6.40;93.20;;;;;;5061679;28;20397;-79
2021/12/20 03:05:32;;;;;;;0.80;0.40;;;6.40;93.20;;;;;;5095350;28;20040;-79
2021/12/20 03:07:58;;;;;;;1.08;0.28;;;6.40;93.20;;;;;;5078179;28;20047;-80
2021/12/20 03:10:25;;;;;;;0.40;0.20;;;6.40;93.20;;;;;;5077973;28;20104;-80
2021/12/20 03:12:52;;;;;;;0.20;0.20;;;6.40;93.20;;;;;;5095329;28;20127;-80
2021/12/20 03:15:23;;;;;;;0.20;0.10;;;6.40;93.20;;;;;;5113644;28;20508;-80
2021/12/20 03:17:49;;;;;;;0.20;0.10;;;6.30;93.10;;;;;;5094812;28;20036;-80
2021/12/20 03:20:15;;;;;;;1.52;0.32;;;6.40;93.20;;;;;;5092829;28;20382;-80
2021/12/20 03:22:42;;;;;;;0.85;0.38;;;6.40;93.20;;;;;;5061281;28;20039;-80
2021/12/20 03:25:08;;;;;;;2.30;0.20;;;6.40;93.20;;;;;;5077966;28;20135;-80
2021/12/20 03:27:34;;;;;;;0.35;0.20;;;6.40;93.20;;;;;;5095255;28;20039;-80
2021/12/20 03:30:01;;;;;;;1.20;0.22;;;6.40;93.20;;;;;;5094549;28;20044;-80
2021/12/20 03:32:27;;;;;;;0.35;0.20;;;6.40;93.20;;;;;;5077794;28;20059;-80
2021/12/20 03:34:53;;;;;;;1.30;0.20;;;6.50;93.20;;;;;;5060902;28;20085;-80
2021/12/20 03:37:19;;;;;;;1.92;0.30;;;6.30;93.10;;;;;;5095050;28;20125;-80
2021/12/20 03:39:44;;;;;;;1.23;0.30;;;6.30;93.10;;;;;;5094687;28;20115;-80
2021/12/20 03:42:10;;;;;;;1.40;0.40;;;6.30;93.10;;;;;;5094324;28;20047;-80
2021/12/20 03:44:43;;;;;;;2.17;0.30;;;6.40;93.20;;;;;;5077680;28;20092;-80
2021/12/20 03:47:09;;;;;;;2.65;0.40;;;6.40;93.20;;;;;;5112899;28;20044;-80
2021/12/20 03:49:34;;;;;;;0.35;0.20;;;6.30;93.10;;;;;;5077648;28;20063;-80
2021/12/20 03:52:01;;;;;;;0.90;0.20;;;6.40;93.20;;;;;;5077282;28;20043;-80
2021/12/20 03:54:30;;;;;;;1.95;0.40;;;6.40;93.10;;;;;;5077578;28;20589;-80
2021/12/20 03:56:56;;;;;;;2.10;0.52;;;6.40;93.10;;;;;;5077363;28;20031;-80
2021/12/20 03:59:22;;;;;;;1.17;0.30;;;6.40;93.10;;;;;;5094423;28;20066;-80
2021/12/20 04:01:47;;;;;;;1.02;0.20;;;6.30;93.10;;;;;;5077232;28;20088;-80
2021/12/20 04:04:13;;;;;;;0.90;0.50;;;6.30;93.10;;;;;;5094162;28;20047;-80
2021/12/20 04:06:39;;;;;;;1.58;0.40;;;6.30;93.10;;;;;;5094221;28;20047;-80
2021/12/20 04:09:06;;;;;;;1.80;0.30;;;6.30;93.10;;;;;;5077714;28;20050;-80
2021/12/20 04:11:32;;;;;;;1.27;0.13;;;6.30;93.00;;;;;;5077158;28;20506;-80
2021/12/20 04:13:58;;;;;;;1.02;0.28;;;6.30;93.00;;;;;;5094311;28;20031;-80
2021/12/20 04:16:24;;;;;;;1.75;0.40;;;6.30;93.00;;;;;;5093999;28;20055;-80
2021/12/20 04:18:50;;;;;;;2.25;0.40;;;6.30;93.00;;;;;;5058469;28;20527;-80
2021/12/20 04:21:16;;;;;;;1.52;0.50;;;6.30;93.00;;;;;;5094078;28;20035;-80
2021/12/20 04:23:42;;;;;;;3.10;0.50;;;6.30;93.00;;;;;;5094292;28;20169;-80
2021/12/20 04:26:08;;;;;;;2.88;0.35;;;6.20;93.00;;;;;;5094726;28;20043;-80
2021/12/20 04:28:33;;;;;;;2.30;0.30;;;6.20;93.00;;;;;;5077140;28;20484;-80
2021/12/20 04:30:59;;;;;;;0.35;0.20;;;6.30;93.00;;;;;;5093967;28;20039;-80
2021/12/20 04:33:25;;;;;;;1.35;0.30;;;6.30;93.00;;;;;;5112193;28;20463;-80
2021/12/20 04:35:51;;;;;;;1.05;0.20;;;6.20;92.90;;;;;;5112117;28;20031;-80
2021/12/20 04:38:18;;;;;;;0.10;0.10;;;6.30;92.90;;;;;;5093794;28;20052;-80
2021/12/20 04:40:44;;;;;;;0.65;0.20;;;6.40;92.90;;;;;;5111991;28;20036;-80
2021/12/20 04:43:09;;;;;;;1.00;0.20;;;6.30;92.90;;;;;;5112062;28;20038;-80
2021/12/20 04:45:36;;;;;;;0.10;0.10;;;6.20;92.90;;;;;;5077071;28;20508;-80
2021/12/20 04:48:03;;;;;;;1.65;0.25;;;6.30;92.90;;;;;;5093713;28;20447;-80
2021/12/20 04:50:29;;;;;;;2.90;0.50;;;6.20;92.90;;;;;;5112230;28;20131;-80
2021/12/20 04:52:58;;;;;;;1.10;0.30;;;6.30;92.90;;;;;;5060208;28;20043;-80
2021/12/20 04:55:24;;;;;;;1.20;0.20;;;6.20;92.90;;;;;;5060840;28;20102;-80
2021/12/20 04:57:50;;;;;;;0.65;0.30;;;6.20;92.80;;;;;;5076498;28;20062;-80
2021/12/20 05:00:20;;;;;;;1.40;0.30;;;6.20;92.80;;;;;;5111772;28;20084;-80
2021/12/20 05:02:46;;;;;;;1.15;0.28;;;6.20;92.80;;;;;;5094966;28;20438;-80
2021/12/20 05:05:12;;;;;;;0.15;0.15;;;6.30;92.80;;;;;;5097725;28;20126;-80
2021/12/20 05:07:39;;;;;;;1.30;0.30;;;6.30;92.80;;;;;;5080220;28;20144;-80
2021/12/20 05:10:11;;;;;;;0.47;0.25;;;6.30;92.80;;;;;;5080362;28;20044;-80
2021/12/20 05:12:37;;;;;;;0.93;0.10;;;6.30;92.70;;;;;;5097639;28;20038;-80
2021/12/20 05:15:03;;;;;;;1.17;0.38;;;6.30;92.70;;;;;;5115449;28;20455;-81
2021/12/20 05:17:29;;;;;;;0.77;0.35;;;6.20;92.70;;;;;;5063381;28;20396;-80
2021/12/20 05:19:55;;;;;;;0.32;0.20;;;6.30;92.70;;;;;;5080554;28;20040;-80
2021/12/20 05:22:21;;;;;;;0.85;0.20;;;6.40;92.70;;;;;;5063439;28;20044;-80
2021/12/20 05:24:47;;;;;;;1.60;0.25;;;6.30;92.70;;;;;;5097215;28;20116;-80
2021/12/20 05:27:13;;;;;;;0.13;0.10;;;6.20;92.70;;;;;;5096749;28;20055;-80
2021/12/20 05:29:39;;;;;;;0.13;0.03;;;6.20;92.70;;;;;;5096532;28;20488;-81
2021/12/20 05:32:07;;;;;;;1.00;0.15;;;6.20;92.60;;;;;;5079853;28;20366;-80
2021/12/20 05:34:34;;;;;;;0.60;0.20;;;6.20;92.70;;;;;;5114851;28;20392;-80
2021/12/20 05:37:00;;;;;;;0.20;0.10;;;6.30;92.70;;;;;;5090930;28;20130;-80
2021/12/20 05:39:26;;;;;;;1.25;0.17;;;6.20;92.60;;;;;;5080362;28;20135;-80
2021/12/20 05:41:52;;;;;;;0.30;0.10;;;6.10;92.60;;;;;;5115205;28;20048;-80
2021/12/20 05:44:18;;;;;;;1.02;0.30;;;6.20;92.60;;;;;;5097100;28;20473;-80
2021/12/20 05:46:44;;;;;;;1.63;0.30;;;6.10;92.60;;;;;;5115054;28;20070;-80
2021/12/20 05:49:10;;;;;;;0.90;0.17;;;6.10;92.60;;;;;;5096602;28;20100;-80
2021/12/20 05:51:36;;;;;;;1.35;0.28;;;6.10;92.60;;;;;;5079479;28;20498;-80
2021/12/20 05:54:01;;;;;;;0.75;0.20;;;6.20;92.60;;;;;;5096673;28;20045;-80
2021/12/20 05:56:27;;;;;;;2.53;0.32;;;6.10;92.60;;;;;;5096735;28;20409;-80
2021/12/20 05:58:53;;;;;;;1.08;0.30;;;6.10;92.60;;;;;;5096331;28;20042;-80
2021/12/20 06:01:19;;;;;;;1.65;0.30;;;6.10;92.60;;;;;;5062707;28;20043;-80
2021/12/20 06:03:44;;;;;;;0.10;0.10;;;6.10;92.60;;;;;;5060549;28;20048;-80
2021/12/20 06:06:12;;;;;;;0.50;0.20;;;6.20;92.60;;;;;;5079162;28;20048;-80
2021/12/20 06:08:38;;;;;;;1.58;0.22;;;6.10;92.50;;;;;;5096021;28;20393;-80
2021/12/20 06:11:03;;;;;;;0.10;0.10;;;6.10;92.50;;;;;;5079208;28;20039;-80
2021/12/20 06:13:29;;;;;;;0.85;0.20;;;6.00;92.50;;;;;;5095821;28;20039;-80
2021/12/20 06:15:55;;;;;;;0.85;0.22;;;6.10;92.50;;;;;;5096082;28;20393;-80
2021/12/20 06:18:20;;;;;;;1.42;0.10;;;6.00;92.50;;;;;;5096108;28;20035;-80
2021/12/20 06:20:46;;;;;;;2.10;0.43;;;6.00;92.50;;;;;;5096342;28;20050;-79
2021/12/20 06:23:12;;;;;;;0.65;0.20;;;6.00;92.50;;;;;;5079233;28;20083;-80
2021/12/20 06:25:38;;;;;;;1.27;0.30;;;6.00;92.50;;;;;;5062637;28;20050;-80
2021/12/20 06:28:04;;;;;;;2.13;0.40;;;6.00;92.50;;;;;;5062550;28;20043;-81
2021/12/20 06:30:30;;;;;;;0.30;0.22;;;6.00;92.50;;;;;;5078965;28;20035;-80
2021/12/20 06:32:56;;;;;;;0.30;0.10;;;6.00;92.50;;;;;;5096196;28;20040;-80
2021/12/20 06:35:22;;;;;;;0.95;0.30;;;5.80;92.50;;;;;;5096443;28;20062;-81
2021/12/20 06:37:58;;;;;;;1.30;0.20;;;6.00;92.50;;;;;;5095675;28;20044;-80
2021/12/20 06:40:24;;;;;;;1.38;0.30;;;5.90;92.50;;;;;;5080384;28;20043;-80
2021/12/20 06:42:50;;;;;;;0.75;0.20;;;5.90;92.50;;;;;;5079003;28;20054;-80
2021/12/20 06:45:16;;;;;;;0.25;0.10;;;6.00;92.50;;;;;;5078789;28;20501;-80
2021/12/20 06:47:45;;;;;;;1.08;0.30;;;6.00;92.50;;;;;;5078526;28;20054;-81
2021/12/20 06:50:11;;;;;;;0.68;0.30;;;5.90;92.50;;;;;;5078439;28;20046;-80
2021/12/20 06:52:37;;;;;;;0.17;0.17;;;5.90;92.50;;;;;;5078784;28;20110;-80
2021/12/20 06:55:04;;;;;;;0.98;0.15;;;6.00;92.50;;;;;;5061776;28;20060;-79
2021/12/20 06:57:29;;;;;;;1.50;0.45;;;6.00;92.50;;;;;;5080729;28;20038;-79
2021/12/20 06:59:56;;;;;;;1.75;0.20;;;5.90;92.40;;;;;;5079159;28;20142;-80
2021/12/20 07:02:23;;;;;;;0.03;0.00;;;6.00;92.50;;;;;;5061962;28;20043;-81
2021/12/20 07:04:49;;;;;;;0.52;0.30;;;5.90;92.50;;;;;;5078453;28;20043;-80
2021/12/20 07:07:14;;;;;;;1.15;0.30;;;5.90;92.40;;;;;;5095317;28;20040;-81
2021/12/20 07:09:40;;;;;;;1.25;0.30;;;5.90;92.40;;;;;;5078402;28;20482;-80
2021/12/20 07:12:06;;;;;;;0.08;0.05;;;6.00;92.40;;;;;;5078262;28;20043;-81
2021/12/20 07:14:33;;;;;;;0.10;0.10;;;6.00;92.40;;;;;;5095389;28;20101;-81
2021/12/20 07:16:59;;;;;;;0.35;0.20;;;5.90;92.30;;;;;;5113404;28;20088;-81
2021/12/20 07:19:25;;;;;;;1.13;0.30;;;5.90;92.30;;;;;;5078402;28;20047;-81
2021/12/20 07:21:51;;;;;;;0.20;0.10;;;6.00;92.30;;;;;;5095204;28;20158;-81
2021/12/20 07:24:16;;;;;;;0.52;0.20;;;6.00;92.30;;;;;;5095012;28;20489;-80
2021/12/20 07:26:43;;;;;;;0.73;0.10;;;6.00;92.30;;;;;;5077496;28;20140;-81
2021/12/20 07:29:09;;;;;;;0.35;0.20;;;5.90;92.30;;;;;;5093109;28;20104;-81
2021/12/20 07:31:35;;;;;;;0.13;0.10;;;6.00;92.30;;;;;;5094993;28;20066;-80
2021/12/20 07:34:00;;;;;;;0.00;0.00;;;6.00;92.30;;;;;;5077914;28;20055;-81
2021/12/20 07:36:26;;;;;;;1.08;0.20;;;5.90;92.30;;;;;;5061310;28;20445;-81
2021/12/20 07:38:52;;;;;;;0.40;0.20;;;5.90;92.30;;;;;;5078019;28;20376;-81
2021/12/20 07:41:20;;;;;;;1.02;0.28;;;5.90;92.30;;;;;;5113852;28;20388;-80
2021/12/20 07:43:47;;;;;;;0.95;0.35;;;5.90;92.30;;;;;;5078417;28;20036;-79
2021/12/20 07:46:12;;;;;;;0.40;0.10;;;5.90;92.30;;;;;;5079013;28;20047;-80
2021/12/20 07:48:38;;;;;;;0.20;0.13;;;5.90;92.30;;;;;;5094844;28;20039;-81
2021/12/20 07:51:04;;;;;;;1.85;0.15;;;5.90;92.30;;;;;;5078024;28;20044;-80
2021/12/20 07:53:30;;;;;;;0.10;0.10;;;5.80;92.30;;;;;;5112915;28;20031;-81
2021/12/20 07:55:57;;;;;;;0.25;0.20;;;5.80;92.30;;;;;;5061327;28;20042;-80
2021/12/20 07:58:23;;;;;;;0.60;0.10;;;5.90;92.30;;;;;;5113578;28;20038;-80
2021/12/20 08:00:49;;;;;;;0.32;0.10;;;5.90;92.30;;;;;;5113171;28;20051;-80
2021/12/20 08:03:15;;;;;;;0.22;0.10;;;5.90;92.30;;;;;;5077894;28;20082;-80
2021/12/20 08:05:41;;;;;;;0.35;0.13;;;5.80;92.30;;;;;;5077597;28;20438;-81
2021/12/20 08:08:07;;;;;;;0.25;0.10;;;6.00;92.30;;;;;;5113136;28;20091;-80
2021/12/20 08:10:34;;;;;;;0.68;0.20;;;5.90;92.30;;;;;;5094451;28;20396;-81
2021/12/20 08:13:00;;;;;;;0.82;0.30;;;5.90;92.30;;;;;;5094157;28;20035;-80
2021/12/20 08:15:27;;;;;;;0.77;0.40;;;5.90;92.30;;;;;;5077816;28;20046;-81
2021/12/20 08:17:54;;;;;;;0.47;0.17;;;5.90;92.20;;;;;;5094188;28;20408;-81
2021/12/20 08:20:22;;;;;;;1.33;0.15;;;5.90;92.20;;;;;;5112414;28;20050;-80
2021/12/20 08:22:48;;;;;;;0.98;0.22;;;5.90;92.30;;;;;;5094449;28;20032;-81
2021/12/20 08:25:16;;;;;;;1.98;0.30;;;5.90;92.20;;;;;;5112820;28;20042;-81
2021/12/20 08:27:42;;;;;;;0.30;0.10;;;5.90;92.20;;;;;;5077460;28;20054;-80
2021/12/20 08:30:09;;;;;;;1.08;0.20;;;6.00;92.20;;;;;;5094615;28;20492;-80
2021/12/20 08:32:36;;;;;;;0.57;0.30;;;5.90;92.20;;;;;;5112414;28;20040;-81
2021/12/20 08:35:04;;;;;;;0.17;0.17;;;6.00;92.20;;;;;;5094821;28;20040;-81
2021/12/20 08:37:30;;;;;;;0.35;0.10;;;6.00;92.20;;;;;;5061348;28;20063;-80
2021/12/20 08:39:56;;;;;;;0.52;0.10;;;6.00;92.20;;;;;;5102525;28;20055;-79
2021/12/20 08:42:22;;;;;;;0.50;0.20;;;6.00;92.20;;;;;;5091650;28;20050;-75
2021/12/20 08:44:49;;;;;;;0.68;0.10;;;5.90;92.10;;;;;;5100427;28;20043;-74
2021/12/20 08:47:16;;;;;;;0.22;0.10;;;6.00;92.10;;;;;;5084056;28;20080;-78
2021/12/20 08:49:42;;;;;;;0.75;0.10;;;6.00;92.10;;;;;;5098978;28;20136;-76
2021/12/20 08:52:09;;;;;;;1.00;0.22;;;6.00;92.10;;;;;;5116675;28;20658;-76
2021/12/20 08:54:35;;;;;;;0.77;0.20;;;6.10;92.10;;;;;;5091598;28;20036;-78
2021/12/20 08:57:00;;;;;;;0.45;0.13;;;6.10;92.10;;;;;;5103781;28;20032;-78
2021/12/20 08:59:26;;;;;;;0.60;0.20;;;6.10;92.10;;;;;;5126944;28;20046;-77
2021/12/20 09:01:52;;;;;;;0.68;0.10;;;6.20;92.40;;;;;;5130775;28;20039;-76
2021/12/20 09:04:19;;;;;;;0.98;0.20;;;6.20;92.10;;;;;;5121423;28;20030;-77
2021/12/20 09:06:45;;;;;;;0.40;0.10;;;6.20;92.00;;;;;;5126962;28;20056;-78
2021/12/20 09:09:14;;;;;;;0.73;0.20;;;6.30;92.00;;;;;;5117718;28;20055;-78
2021/12/20 09:11:40;;;;;;;0.47;0.10;;;6.30;92.00;;;;;;5118590;28;20032;-77
2021/12/20 09:14:06;;;;;;;1.25;0.25;;;6.20;92.00;;;;;;5085148;28;20032;-78
2021/12/20 09:16:32;;;;;;;0.60;0.20;;;6.20;92.00;;;;;;5101363;28;20101;-78
2021/12/20 09:18:58;;;;;;;0.45;0.20;;;6.30;92.00;;;;;;5083887;28;20040;-79
2021/12/20 09:21:24;;;;;;;1.27;0.30;;;6.30;91.90;;;;;;5101588;28;20039;-78
2021/12/20 09:23:50;;;;;;;0.20;0.10;;;6.30;91.90;;;;;;5082475;28;20043;-78
2021/12/20 09:26:16;;;;;;;0.10;0.10;;;6.40;92.00;;;;;;5099075;28;20084;-79
2021/12/20 09:28:42;;;;;;;0.55;0.20;;;6.40;92.20;;;;;;5084887;28;20058;-78
2021/12/20 09:31:09;;;;;;;0.85;0.15;;;6.30;91.90;;;;;;5101883;28;20046;-80
2021/12/20 09:33:35;;;;;;;0.30;0.10;;;6.40;92.20;;;;;;5100129;28;20496;-78
2021/12/20 09:36:01;;;;;;;0.20;0.10;;;6.40;91.80;;;;;;5082138;28;20036;-78
2021/12/20 09:38:29;;;;;;;0.10;0.10;;;6.50;91.80;;;;;;5098090;28;20039;-78
2021/12/20 09:43:47;;;;;;;0.45;0.20;;;6.50;91.70;;;;;;5100544;28;20104;-77
2021/12/20 09:46:13;;;;;;;0.80;0.20;;;6.50;91.70;;;;;;5064553;28;20050;-77
2021/12/20 09:48:47;;;;;;;1.02;0.30;;;6.50;91.70;;;;;;5101215;28;20043;-83
2021/12/20 09:51:13;;;;;;;0.40;0.20;;;6.50;91.70;;;;;;5080860;28;20454;-76
2021/12/20 09:53:40;;;;;;;2.30;0.20;;;6.50;91.70;;;;;;5115068;28;20077;-76
2021/12/20 09:56:06;;;;;;;0.52;0.20;;;6.50;91.70;;;;;;5080331;28;20448;-77
2021/12/20 09:58:36;;;;;;;3.30;0.20;;;6.50;91.70;;;;;;5100551;28;20043;-79
2021/12/20 10:01:04;;;;;;;1.13;0.20;;;6.50;91.70;;;;;;5096283;28;20126;-77
2021/12/20 10:03:30;;;;;;;0.50;0.20;;;6.50;91.80;;;;;;5099241;28;20488;-78
2021/12/20 10:05:58;;;;;;;1.20;0.20;;;6.40;91.70;;;;;;5100272;28;20044;-79
2021/12/20 10:08:32;;;;;;;0.75;0.30;;;6.50;91.80;;;;;;5099510;28;20039;-78
2021/12/20 10:11:01;;;;;;;0.43;0.17;;;6.50;91.70;;;;;;5115777;28;20184;-78
2021/12/20 10:13:30;;;;;;;0.20;0.10;;;6.50;91.70;;;;;;5095330;28;20069;-78
2021/12/20 10:15:57;;;;;;;0.73;0.10;;;6.60;91.70;;;;;;5080183;28;20047;-77
2021/12/20 10:18:24;;;;;;;1.98;0.40;;;6.60;91.60;;;;;;5081053;28;20051;-76
2021/12/20 10:20:52;;;;;;;0.65;0.30;;;6.50;91.60;;;;;;5096562;28;20048;-77
2021/12/20 10:23:22;;;;;;;0.28;0.20;;;6.70;91.60;;;;;;5079165;28;20421;-77
2021/12/20 10:25:52;;;;;;;0.28;0.20;;;6.60;91.50;;;;;;5096086;28;20126;-74
2021/12/20 10:28:22;;;;;;;0.65;0.40;;;6.70;91.50;;;;;;5114201;28;20036;-77
2021/12/20 10:30:57;;;;;;;0.70;0.10;;;6.70;91.80;;;;;;5095760;28;20098;-77
2021/12/20 10:33:24;;;;;;;0.52;0.30;;;6.70;91.40;;;;;;5096282;28;20127;-77
2021/12/20 10:35:54;;;;;;;0.80;0.30;;;6.70;91.40;;;;;;5097348;28;20358;-80
2021/12/20 10:38:38;;;;;;;1.52;0.40;;;6.80;91.40;;;;;;5114189;28;20580;-78
2021/12/20 10:41:37;;;;;;;1.27;0.22;;;6.80;91.40;;;;;;5082572;28;20130;-77
2021/12/20 10:44:18;;;;;;;2.53;0.45;;;6.80;91.30;;;;;;5117875;28;20074;-77
2021/12/20 10:46:50;;;;;;;1.00;0.30;;;6.80;91.20;;;;;;5103210;28;20046;-77
2021/12/20 10:49:18;;;;;;;1.30;0.20;;;6.80;91.20;;;;;;5099326;28;20048;-78
2021/12/20 10:51:48;;;;;;;0.82;0.40;;;6.80;91.20;;;;;;5079618;28;20027;-77
2021/12/20 10:54:18;;;;;;;0.60;0.30;;;6.80;91.20;;;;;;5097580;28;20037;-76
2021/12/20 10:57:00;;;;;;;1.58;0.40;;;6.80;91.20;;;;;;5100648;28;20445;-79
2021/12/20 10:59:29;;;;;;;1.40;0.28;;;6.80;91.20;;;;;;5105949;28;20036;-78
2021/12/20 11:04:37;;;;;;;0.57;0.32;;;6.90;91.20;;;;;;5098735;28;20044;-78
2021/12/20 11:09:59;;;;;;;2.10;0.38;;;6.80;91.20;;;;;;5075136;28;20078;-78
2021/12/20 11:12:31;;;;;;;4.18;0.52;;;6.80;91.20;;;;;;5115956;28;20078;-78
2021/12/20 11:15:00;;;;;;;1.65;0.40;;;6.80;91.20;;;;;;5081550;28;20031;-77
2021/12/20 11:17:28;;;;;;;1.17;0.20;;;6.90;91.20;;;;;;5116088;28;20114;-78
2021/12/20 11:19:56;;;;;;;0.68;0.43;;;6.80;91.20;;;;;;5064822;28;20134;-78
2021/12/20 11:22:24;;;;;;;0.77;0.32;;;6.90;91.20;;;;;;5095471;28;20047;-78
2021/12/20 11:24:53;;;;;;;1.38;0.32;;;6.90;91.20;;;;;;5079991;28;20472;-77
2021/12/20 11:27:24;;;;;;;1.10;0.30;;;6.90;91.20;;;;;;5063917;28;20043;-77
2021/12/20 11:29:52;;;;;;;;;;;6.90;91.20;;;;;;5100247;28;20043;-80
2021/12/20 11:32:19;;;;;;;2.65;0.43;;;6.90;91.10;;;;;;5114064;28;19947;-78
2021/12/20 11:34:45;;;;;;;0.45;0.22;;;7.00;91.10;;;;;;5092688;28;20063;-77
2021/12/20 11:37:15;;;;;;;1.30;0.38;;;6.90;91.10;;;;;;5078413;28;20070;-77
2021/12/20 11:39:41;;;;;;;2.20;0.32;;;7.00;91.10;;;;;;5110710;28;20396;-77
2021/12/20 11:42:12;;;;;;;0.80;0.20;;;7.00;91.10;;;;;;5091897;28;20050;-78
2021/12/20 11:44:39;;;;;;;1.20;0.43;;;7.00;91.10;;;;;;5128577;28;20457;-77
2021/12/20 11:47:15;;;;;;;1.80;0.35;;;7.10;91.10;;;;;;5108284;28;20099;-79
2021/12/20 11:49:41;;;;;;;1.13;0.30;;;7.10;91.00;;;;;;5107029;28;20035;-80
2021/12/20 11:52:15;;;;;;;2.65;0.50;;;7.20;91.00;;;;;;5091491;28;20045;-81
2021/12/20 11:54:46;;;;;;;1.15;0.40;;;7.20;91.00;;;;;;5069073;28;20032;-81
2021/12/20 11:57:32;;;;;;;2.05;0.40;;;7.20;91.00;;;;;;5089111;28;20037;-80
2021/12/20 12:00:00;;;;;;;2.08;0.60;;;7.30;90.90;;;;;;5099463;28;20032;-80
2021/12/20 12:02:30;;;;;;;1.92;0.20;;;7.30;90.80;;;;;;5082877;28;20069;-80
2021/12/20 12:05:00;;;;;;;0.85;0.40;;;7.40;90.80;;;;;;5111258;28;20051;-79
2021/12/20 12:07:30;;;;;;;1.38;0.40;;;7.40;90.80;;;;;;5099788;28;20473;-79
2021/12/20 12:09:58;;;;;;;1.10;0.30;;;7.40;90.70;;;;;;5099547;28;20039;-79
2021/12/20 12:12:26;;;;;;;1.20;0.40;;;7.40;90.70;;;;;;5120387;27;20082;-80
2021/12/20 12:15:08;;;;;;;0.73;0.22;;;7.50;90.70;;;;;;5122885;28;20043;-79
2021/12/20 12:17:49;;;;;;;0.82;0.22;;;7.60;90.60;;;;;;5123834;28;20134;-79
2021/12/20 12:20:39;;;;;;;1.30;0.30;;;7.60;90.60;;;;;;5121380;28;20047;-80
2021/12/20 12:23:17;;;;;;;1.65;0.45;;;7.60;90.50;;;;;;5104756;28;20047;-80
2021/12/20 12:25:57;;;;;;;1.95;0.30;;;7.60;90.40;;;;;;5098735;28;20036;-80
2021/12/20 12:28:25;;;;;;;2.20;0.50;;;7.70;90.30;;;;;;5052257;28;20437;-82
2021/12/20 12:31:03;;;;;;;0.95;0.32;;;7.70;90.40;;;;;;5059275;28;20077;-82
2021/12/20 12:33:32;;;;;;;1.02;0.38;;;7.80;90.40;;;;;;5041510;28;20044;-78
2021/12/20 12:36:02;;;;;;;1.48;0.38;;;7.80;90.40;;;;;;5040099;28;20051;-81
2021/12/20 12:38:34;;;;;;;1.35;0.47;;;7.80;90.40;;;;;;5023155;28;20083;-77
2021/12/20 12:41:15;;;;;;;2.08;0.45;;;7.80;90.20;;;;;;5056935;28;20041;-80
2021/12/20 12:44:00;;;;;;;1.33;0.40;;;7.80;90.20;;;;;;5040807;28;20064;-77
2021/12/20 12:46:46;;;;;;;0.90;0.30;;;7.80;90.20;;;;;;5055948;28;20033;-77
2021/12/20 12:49:30;;;;;;;0.55;0.20;;;7.80;90.20;;;;;;5022726;28;20059;-77
2021/12/20 12:52:32;;;;;;;1.10;0.30;;;7.80;90.20;;;;;;5039621;28;20132;-77
2021/12/20 12:55:04;;;;;;;1.13;0.30;;;7.70;90.20;;;;;;5039133;28;20095;-77
2021/12/20 12:57:32;;;;;;;1.17;0.35;;;7.70;90.10;;;;;;5056216;28;20044;-77
2021/12/20 13:00:09;;;;;;;0.73;0.40;;;7.60;90.20;;;;;;5106737;28;20047;-78
2021/12/20 13:02:38;;;;;;;2.28;0.35;;;7.60;90.30;;;;;;5084571;28;20071;-77
2021/12/20 13:05:16;;;;;;;1.63;0.43;;;7.50;90.30;;;;;;5100076;28;20043;-77
2021/12/20 13:07:50;;;;;;;0.65;0.20;;;7.40;90.40;;;;;;5100119;28;20043;-77
2021/12/20 13:10:21;;;;;;;0.95;0.45;;;7.30;90.50;;;;;;5100084;28;20080;-77
2021/12/20 13:12:58;;;;;;;2.72;0.28;;;7.30;90.60;;;;;;5084136;28;20059;-77
2021/12/20 13:18:19;;;;;;;1.23;0.47;;;7.20;90.70;;;;;;5103156;28;21309;-77
2021/12/20 13:20:59;;;;;;;1.58;0.40;;;7.20;90.70;;;;;;5118425;28;20060;-78